Time;durP1;ratioP1;P1;durP2;ratioP2;P2;SDS_P1;SDS_P2;PMS_P1;PMS_P2;Temp;Humidity;BMP_temperature;BMP_pressure;BME280_temperature;BME280_humidity;BME280_pressure;Samples;Min_cycle;Max_cycle;Signal;HPM_P1;HPM_P2
2023/04/15 00:01:09;;;;;;;7.47;3.57;;;11.30;99.90;;;;;;7295109;19;20206;-78
2023/04/15 00:03:35;;;;;;;7.13;3.30;;;11.30;99.90;;;;;;7296684;19;20250;-79
2023/04/15 00:06:04;;;;;;;7.93;3.00;;;11.20;99.90;;;;;;7297187;19;20194;-80
2023/04/15 00:08:30;;;;;;;6.57;3.27;;;11.20;99.90;;;;;;7293366;19;20541;-78
2023/04/15 00:11:01;;;;;;;8.27;3.53;;;11.30;99.90;;;;;;7292260;19;20226;-80
2023/04/15 00:13:27;;;;;;;8.60;2.90;;;11.40;99.90;;;;;;7258069;19;20196;-80
2023/04/15 00:15:52;;;;;;;7.67;2.73;;;11.50;99.90;;;;;;7302034;19;20186;-77
2023/04/15 00:18:19;;;;;;;7.47;3.30;;;11.60;99.90;;;;;;7312661;19;20215;-77
2023/04/15 00:20:45;;;;;;;7.30;3.03;;;11.60;99.90;;;;;;7324255;19;20187;-79
2023/04/15 00:23:12;;;;;;;8.93;3.20;;;11.70;99.90;;;;;;7299775;19;20191;-78
2023/04/15 00:25:39;;;;;;;7.90;3.20;;;11.70;99.90;;;;;;7303055;19;20360;-80
2023/04/15 00:28:05;;;;;;;8.40;3.63;;;11.60;99.90;;;;;;7300831;19;20195;-79
2023/04/15 00:30:36;;;;;;;8.43;3.10;;;11.70;99.90;;;;;;7301715;19;20227;-79
2023/04/15 00:33:02;;;;;;;8.83;3.73;;;11.70;99.90;;;;;;7298856;19;20195;-78
2023/04/15 00:35:31;;;;;;;7.90;3.33;;;11.70;99.90;;;;;;7300043;19;20207;-78
2023/04/15 00:37:59;;;;;;;7.33;3.10;;;11.70;99.90;;;;;;7301458;19;20199;-80
2023/04/15 00:40:26;;;;;;;7.13;3.20;;;11.60;99.90;;;;;;7298825;19;20204;-78
2023/04/15 00:42:53;;;;;;;8.57;3.40;;;11.70;99.90;;;;;;7301427;19;20196;-78
2023/04/15 00:45:21;;;;;;;10.67;3.40;;;11.60;99.90;;;;;;7318061;19;20631;-79
2023/04/15 00:47:47;;;;;;;8.47;3.10;;;11.50;99.90;;;;;;7326373;19;20235;-80
2023/04/15 00:50:14;;;;;;;7.43;3.40;;;11.20;99.90;;;;;;7299182;19;20717;-79
2023/04/15 00:52:41;;;;;;;7.37;3.40;;;11.10;99.90;;;;;;7299742;19;20180;-79
2023/04/15 00:55:08;;;;;;;7.33;3.47;;;11.10;99.90;;;;;;7294882;19;20204;-79
2023/04/15 00:57:35;;;;;;;8.03;3.60;;;11.10;99.90;;;;;;7297637;19;20212;-80
2023/04/15 01:00:03;;;;;;;8.60;3.43;;;11.10;99.90;;;;;;7301104;19;20197;-79
2023/04/15 01:02:31;;;;;;;7.97;3.10;;;11.10;99.90;;;;;;7301883;19;20540;-80
2023/04/15 01:04:57;;;;;;;7.90;3.30;;;11.10;99.90;;;;;;7297364;19;20194;-79
2023/04/15 01:07:23;;;;;;;10.83;3.77;;;11.00;99.90;;;;;;7295094;19;20197;-80
2023/04/15 01:09:49;;;;;;;6.50;3.13;;;10.80;99.90;;;;;;7308616;19;20239;-77
2023/04/15 01:12:16;;;;;;;7.63;3.30;;;10.90;99.90;;;;;;7322840;19;20198;-79
2023/04/15 01:14:43;;;;;;;7.23;3.33;;;10.90;99.90;;;;;;7295275;19;20231;-80
2023/04/15 01:17:12;;;;;;;7.70;3.40;;;11.00;99.90;;;;;;7307402;19;20201;-78
2023/04/15 01:19:41;;;;;;;8.33;3.13;;;11.10;99.90;;;;;;7307022;19;20192;-79
2023/04/15 01:22:11;;;;;;;9.03;3.63;;;11.20;99.90;;;;;;7305063;19;20202;-80
2023/04/15 01:24:38;;;;;;;8.20;3.50;;;11.20;99.90;;;;;;7305526;19;20195;-79
2023/04/15 01:27:06;;;;;;;9.27;3.67;;;11.20;99.90;;;;;;7297578;19;20182;-77
2023/04/15 01:29:54;;;;;;;8.47;3.30;;;11.30;99.90;;;;;;7308649;19;20197;-78
2023/04/15 01:32:22;;;;;;;9.87;4.40;;;11.40;99.90;;;;;;7290851;19;20194;-77
2023/04/15 01:34:52;;;;;;;8.63;3.60;;;11.50;99.90;;;;;;7292440;19;20180;-78
2023/04/15 01:37:19;;;;;;;8.13;3.70;;;11.50;99.90;;;;;;7318972;19;20205;-78
2023/04/15 01:39:45;;;;;;;8.70;3.83;;;11.40;99.90;;;;;;7299251;19;20245;-79
2023/04/15 01:42:11;;;;;;;7.53;3.33;;;11.40;99.90;;;;;;7302524;19;20192;-78
2023/04/15 01:44:37;;;;;;;8.40;4.03;;;11.40;99.90;;;;;;7307787;19;20183;-79
2023/04/15 01:47:05;;;;;;;7.27;3.33;;;11.30;99.90;;;;;;7305047;19;20189;-80
2023/04/15 01:49:36;;;;;;;8.13;3.73;;;11.20;99.90;;;;;;7302279;19;20263;-78
2023/04/15 01:52:02;;;;;;;7.47;3.63;;;11.20;99.90;;;;;;7304541;19;20210;-79
2023/04/15 01:54:29;;;;;;;7.60;4.00;;;11.10;99.90;;;;;;7305734;19;20177;-78
2023/04/15 01:56:55;;;;;;;10.80;3.83;;;11.10;99.90;;;;;;7302962;19;20187;-78
2023/04/15 01:59:22;;;;;;;9.20;3.90;;;11.20;99.90;;;;;;7299823;19;20644;-78
2023/04/15 02:01:48;;;;;;;13.47;3.90;;;11.20;99.90;;;;;;7315147;19;20196;-78
2023/04/15 02:04:18;;;;;;;10.03;4.27;;;11.30;99.90;;;;;;7294630;19;20183;-79
2023/04/15 02:06:43;;;;;;;10.00;4.90;;;11.30;99.90;;;;;;7294520;19;20261;-78
2023/04/15 02:09:11;;;;;;;8.00;4.43;;;11.30;99.90;;;;;;7289664;19;20193;-80
2023/04/15 02:11:36;;;;;;;11.67;5.10;;;11.40;99.90;;;;;;7286521;19;20194;-79
2023/04/15 02:14:04;;;;;;;9.20;5.03;;;11.40;99.90;;;;;;7284601;19;20196;-80
2023/04/15 02:16:30;;;;;;;9.13;4.60;;;11.30;99.90;;;;;;7285877;19;20205;-78
2023/04/15 02:18:59;;;;;;;7.60;4.17;;;11.30;99.90;;;;;;7292724;19;20204;-79
2023/04/15 02:21:26;;;;;;;9.93;4.57;;;11.30;99.90;;;;;;7291714;19;20196;-80
2023/04/15 02:23:55;;;;;;;9.60;4.90;;;11.20;99.90;;;;;;7302333;19;20187;-79
2023/04/15 02:26:23;;;;;;;10.37;5.27;;;11.30;99.90;;;;;;7304494;19;20191;-79
2023/04/15 02:28:50;;;;;;;10.07;4.63;;;11.40;99.90;;;;;;7321805;19;20190;-78
2023/04/15 02:31:17;;;;;;;10.57;5.30;;;11.30;99.90;;;;;;7311164;19;20217;-79
2023/04/15 02:33:42;;;;;;;10.80;4.80;;;11.30;99.90;;;;;;7285402;19;20232;-79
2023/04/15 02:36:11;;;;;;;9.90;5.13;;;11.20;99.90;;;;;;7303416;19;21239;-79
2023/04/15 02:38:39;;;;;;;11.53;5.20;;;11.30;99.90;;;;;;7277412;19;20207;-80
2023/04/15 02:41:06;;;;;;;8.70;4.90;;;11.40;99.90;;;;;;7292939;19;20260;-78
2023/04/15 02:43:35;;;;;;;9.93;4.87;;;11.50;99.90;;;;;;7300275;19;20195;-78
2023/04/15 02:46:02;;;;;;;10.00;5.10;;;11.50;99.90;;;;;;7296579;19;20270;-80
2023/04/15 02:48:29;;;;;;;13.03;5.47;;;11.50;99.90;;;;;;7293583;19;20512;-79
2023/04/15 02:51:18;;;;;;;9.97;4.83;;;11.50;99.90;;;;;;7299827;19;20714;-80
2023/04/15 02:53:45;;;;;;;10.57;4.47;;;11.50;99.90;;;;;;7301142;19;20190;-80
2023/04/15 02:56:11;;;;;;;9.47;4.17;;;11.60;99.90;;;;;;7300618;19;20230;-79
2023/04/15 02:58:38;;;;;;;11.70;5.30;;;11.60;99.90;;;;;;7288181;19;20999;-79
2023/04/15 03:01:04;;;;;;;10.77;5.10;;;11.60;99.90;;;;;;7287323;19;20237;-78
2023/04/15 03:03:30;;;;;;;12.80;5.17;;;11.50;99.90;;;;;;7286430;19;20342;-78
2023/04/15 03:05:56;;;;;;;12.27;5.73;;;11.30;99.90;;;;;;7285311;19;20188;-79
2023/04/15 03:08:21;;;;;;;12.60;5.43;;;11.30;99.90;;;;;;7285322;19;20195;-79
2023/04/15 03:10:48;;;;;;;9.47;5.57;;;11.30;99.90;;;;;;7308500;19;20198;-78
2023/04/15 03:13:15;;;;;;;8.80;5.30;;;11.30;99.90;;;;;;7286180;19;20218;-80
2023/04/15 03:15:46;;;;;;;11.00;4.90;;;11.40;99.90;;;;;;7287033;19;20694;-78
2023/04/15 03:18:12;;;;;;;9.80;4.87;;;11.40;99.90;;;;;;7286116;19;20226;-78
2023/04/15 03:20:40;;;;;;;8.57;5.17;;;11.20;99.90;;;;;;7285573;19;20187;-80
2023/04/15 03:23:07;;;;;;;10.60;4.77;;;11.30;99.90;;;;;;7285212;19;20202;-80
2023/04/15 03:25:36;;;;;;;10.23;4.90;;;11.20;99.90;;;;;;7284735;19;20217;-78
2023/04/15 03:28:04;;;;;;;8.93;4.83;;;11.20;99.90;;;;;;7286518;19;20946;-80
2023/04/15 03:30:32;;;;;;;9.77;5.03;;;11.10;99.90;;;;;;7285510;19;20198;-80
2023/04/15 03:33:00;;;;;;;10.10;5.20;;;10.90;99.90;;;;;;7290480;19;20187;-78
2023/04/15 03:35:25;;;;;;;8.37;4.80;;;10.60;99.90;;;;;;7285815;19;20200;-78
2023/04/15 03:37:51;;;;;;;9.73;5.60;;;10.50;99.90;;;;;;7288432;19;20207;-78
2023/04/15 03:40:17;;;;;;;10.80;5.10;;;10.70;99.90;;;;;;7307879;19;20195;-79
2023/04/15 03:42:43;;;;;;;10.30;5.63;;;10.70;99.90;;;;;;7283818;19;20209;-78
2023/04/15 03:45:09;;;;;;;13.17;6.50;;;10.70;99.90;;;;;;7284164;19;20985;-78
2023/04/15 03:47:35;;;;;;;16.43;7.10;;;10.80;99.90;;;;;;7286312;19;20202;-79
2023/04/15 03:50:01;;;;;;;18.73;7.40;;;10.90;99.90;;;;;;7288808;19;20673;-80
2023/04/15 03:52:26;;;;;;;16.57;7.43;;;11.00;99.90;;;;;;7292711;19;20238;-80
2023/04/15 03:54:54;;;;;;;15.27;7.40;;;11.00;99.90;;;;;;7371779;19;20587;-80
2023/04/15 03:57:26;;;;;;;16.90;8.03;;;10.70;99.90;;;;;;7304328;19;20209;-78
2023/04/15 03:59:56;;;;;;;22.40;9.73;;;10.50;99.90;;;;;;7304800;19;20193;-80
2023/04/15 04:02:26;;;;;;;20.30;9.73;;;10.40;99.90;;;;;;7416457;19;20145;-80
2023/04/15 04:04:58;;;;;;;20.90;8.73;;;10.40;99.90;;;;;;7416671;19;20133;-78
2023/04/15 04:07:27;;;;;;;23.23;10.03;;;10.00;99.90;;;;;;7324869;19;20197;-78
2023/04/15 04:09:53;;;;;;;23.67;10.23;;;9.60;99.90;;;;;;7308361;19;20189;-79
2023/04/15 04:12:19;;;;;;;24.60;11.37;;;9.40;99.90;;;;;;7325429;19;20727;-77
2023/04/15 04:14:47;;;;;;;26.87;10.77;;;9.40;99.90;;;;;;7307986;19;20189;-80
2023/04/15 04:17:13;;;;;;;23.70;11.13;;;9.40;99.90;;;;;;7308033;19;20197;-80
2023/04/15 04:19:38;;;;;;;24.97;10.93;;;9.50;99.90;;;;;;7308540;19;20245;-79
2023/04/15 04:22:05;;;;;;;28.10;12.53;;;9.50;99.90;;;;;;7290920;19;20579;-78
2023/04/15 04:24:31;;;;;;;26.70;11.83;;;9.50;99.90;;;;;;7292339;19;20193;-78
2023/04/15 04:26:57;;;;;;;30.47;12.20;;;9.60;99.90;;;;;;7292489;19;20715;-80
2023/04/15 04:29:23;;;;;;;25.80;12.43;;;9.60;99.90;;;;;;7291503;19;20197;-78
2023/04/15 04:31:48;;;;;;;29.80;12.87;;;9.60;99.90;;;;;;7313509;19;20191;-78
2023/04/15 04:34:15;;;;;;;22.87;11.40;;;9.70;99.90;;;;;;7292926;19;20208;-78
2023/04/15 04:36:41;;;;;;;25.40;12.47;;;9.60;99.90;;;;;;7292090;19;20683;-80
2023/04/15 04:39:07;;;;;;;23.37;11.27;;;9.40;99.90;;;;;;7289505;19;20193;-80
2023/04/15 04:41:33;;;;;;;25.10;12.07;;;9.40;99.90;;;;;;7289540;19;20199;-80
2023/04/15 04:43:59;;;;;;;24.70;12.73;;;9.50;99.90;;;;;;7291970;19;20189;-80
2023/04/15 04:46:24;;;;;;;26.47;12.53;;;9.60;99.90;;;;;;7290604;19;20189;-78
2023/04/15 04:48:50;;;;;;;25.40;12.43;;;9.70;99.90;;;;;;7298914;19;20660;-80
2023/04/15 04:51:16;;;;;;;26.77;12.97;;;9.80;99.90;;;;;;7312184;19;20205;-80
2023/04/15 04:53:42;;;;;;;25.40;13.07;;;9.80;99.90;;;;;;7292215;19;20177;-80
2023/04/15 04:56:08;;;;;;;26.20;12.73;;;9.90;99.90;;;;;;7291329;19;20618;-80
2023/04/15 04:58:34;;;;;;;24.43;12.73;;;10.00;99.90;;;;;;7288363;19;20665;-80
2023/04/15 05:01:00;;;;;;;23.53;12.97;;;10.10;99.90;;;;;;7288487;19;20681;-78
2023/04/15 05:03:26;;;;;;;24.13;12.23;;;10.10;99.90;;;;;;7293595;19;20192;-78
2023/04/15 05:05:52;;;;;;;27.00;13.30;;;10.10;99.90;;;;;;7289655;19;20187;-80
2023/04/15 05:08:17;;;;;;;28.33;14.03;;;10.20;99.90;;;;;;7309883;19;20184;-80
2023/04/15 05:10:43;;;;;;;24.90;13.03;;;10.30;99.90;;;;;;7288689;19;20199;-79
2023/04/15 05:13:09;;;;;;;25.23;13.40;;;10.40;99.90;;;;;;7290404;19;21479;-78
2023/04/15 05:15:37;;;;;;;26.47;14.00;;;10.50;99.90;;;;;;7289917;19;20196;-80
2023/04/15 05:18:03;;;;;;;31.87;14.67;;;10.60;99.90;;;;;;7290526;19;20189;-80
2023/04/15 05:20:29;;;;;;;25.33;13.83;;;10.70;99.90;;;;;;7288589;19;20191;-78
2023/04/15 05:22:55;;;;;;;23.60;13.03;;;10.80;99.90;;;;;;7291029;19;20210;-80
2023/04/15 05:25:21;;;;;;;20.07;11.93;;;10.80;99.90;;;;;;7296160;19;20214;-80
2023/04/15 05:27:46;;;;;;;23.73;11.10;;;10.90;99.90;;;;;;7312855;19;20194;-78
2023/04/15 05:30:12;;;;;;;23.83;11.90;;;10.90;99.90;;;;;;7287799;19;20720;-78
2023/04/15 05:32:39;;;;;;;20.63;10.67;;;10.90;99.90;;;;;;7290047;19;20194;-80
2023/04/15 05:35:05;;;;;;;21.40;11.77;;;11.00;99.90;;;;;;7289829;19;20185;-78
2023/04/15 05:37:31;;;;;;;24.63;11.87;;;11.00;99.90;;;;;;7290488;19;20207;-80
2023/04/15 05:39:56;;;;;;;20.10;10.80;;;11.10;99.90;;;;;;7287831;19;20636;-78
2023/04/15 05:42:22;;;;;;;21.30;11.87;;;11.20;99.90;;;;;;7286845;19;20190;-78
2023/04/15 05:44:48;;;;;;;26.73;12.07;;;11.20;99.90;;;;;;7306696;19;20174;-79
2023/04/15 05:47:14;;;;;;;29.27;11.57;;;11.20;99.90;;;;;;7285787;19;20190;-78
2023/04/15 05:49:39;;;;;;;26.43;13.07;;;11.20;99.90;;;;;;7283131;19;20540;-76
2023/04/15 05:52:05;;;;;;;25.13;11.73;;;11.20;99.90;;;;;;7286865;19;20249;-77
2023/04/15 05:54:31;;;;;;;22.27;11.67;;;11.20;99.90;;;;;;7285682;19;20654;-78
2023/04/15 05:56:57;;;;;;;26.70;11.67;;;11.20;99.90;;;;;;7284395;19;20196;-77
2023/04/15 05:59:23;;;;;;;21.77;11.53;;;11.00;99.90;;;;;;7284277;19;20194;-77
2023/04/15 06:01:49;;;;;;;21.73;11.90;;;10.90;99.90;;;;;;7306600;19;20194;-77
2023/04/15 06:04:15;;;;;;;23.47;11.53;;;10.80;99.90;;;;;;7285577;19;20220;-77
2023/04/15 06:06:41;;;;;;;21.07;11.13;;;10.60;99.90;;;;;;7285845;19;20306;-78
2023/04/15 06:09:07;;;;;;;21.77;10.97;;;10.50;99.90;;;;;;7284804;19;20213;-77
2023/04/15 06:11:33;;;;;;;22.27;11.33;;;10.40;99.90;;;;;;7286827;19;20185;-77
2023/04/15 06:13:58;;;;;;;22.37;11.57;;;10.50;99.90;;;;;;7285267;19;20178;-78
2023/04/15 06:16:24;;;;;;;22.67;11.13;;;10.70;99.90;;;;;;7285152;19;20280;-78
2023/04/15 06:18:50;;;;;;;23.90;11.47;;;10.70;99.90;;;;;;7301208;19;20182;-77
2023/04/15 06:21:15;;;;;;;18.27;10.57;;;11.00;99.90;;;;;;7294823;19;20752;-76
2023/04/15 06:23:41;;;;;;;23.30;10.77;;;11.20;99.90;;;;;;7283480;19;20193;-76
2023/04/15 06:26:07;;;;;;;22.33;11.00;;;11.40;99.90;;;;;;7285062;19;20228;-77
2023/04/15 06:28:33;;;;;;;19.93;10.80;;;11.60;99.90;;;;;;7284234;19;20241;-77
2023/04/15 06:31:00;;;;;;;17.87;9.93;;;11.80;99.90;;;;;;7284217;19;20202;-77
2023/04/15 06:33:25;;;;;;;18.67;10.10;;;12.00;99.90;;;;;;7283646;19;20265;-77
2023/04/15 06:35:51;;;;;;;18.77;9.20;;;12.10;99.90;;;;;;7283569;19;20204;-76
2023/04/15 06:38:17;;;;;;;19.43;9.40;;;12.30;99.90;;;;;;7304948;19;20821;-76
2023/04/15 06:40:43;;;;;;;19.77;10.47;;;12.60;99.90;;;;;;7283918;19;20185;-76
2023/04/15 06:43:09;;;;;;;15.87;9.57;;;12.90;99.90;;;;;;7281817;19;20200;-77
2023/04/15 06:45:34;;;;;;;19.87;9.37;;;13.20;99.90;;;;;;7281680;19;20185;-76
2023/04/15 06:48:00;;;;;;;15.43;8.60;;;13.70;99.90;;;;;;7284996;19;20197;-79
2023/04/15 06:50:26;;;;;;;14.07;8.43;;;14.10;99.90;;;;;;7283495;19;20618;-79
2023/04/15 06:52:53;;;;;;;16.27;9.40;;;14.60;99.90;;;;;;7283861;19;20197;-76
2023/04/15 06:55:19;;;;;;;16.57;9.27;;;15.10;99.90;;;;;;7305393;19;20218;-76
2023/04/15 06:57:45;;;;;;;15.60;7.20;;;15.60;99.90;;;;;;7281949;19;20566;-76
2023/04/15 07:00:11;;;;;;;14.90;7.90;;;16.00;99.90;;;;;;7284426;19;20180;-78
2023/04/15 07:02:37;;;;;;;17.13;7.10;;;16.50;99.90;;;;;;7283371;19;20253;-78
2023/04/15 07:05:03;;;;;;;14.73;6.37;;;16.50;99.90;;;;;;7282289;19;20200;-78
2023/04/15 07:07:29;;;;;;;15.87;7.43;;;15.70;99.90;;;;;;7285435;19;20194;-77
2023/04/15 07:09:55;;;;;;;14.60;7.00;;;15.30;99.90;;;;;;7283081;19;20548;-76
2023/04/15 07:12:21;;;;;;;15.03;7.10;;;14.80;99.90;;;;;;7291872;19;20210;-76
2023/04/15 07:14:46;;;;;;;13.80;7.03;;;14.90;99.90;;;;;;7302910;19;20192;-77
2023/04/15 07:17:12;;;;;;;17.00;7.40;;;15.30;99.90;;;;;;7281907;19;20689;-77
2023/04/15 07:19:38;;;;;;;12.57;7.20;;;15.40;99.90;;;;;;7283087;19;20193;-77
2023/04/15 07:22:04;;;;;;;17.07;7.43;;;15.70;99.90;;;;;;7282637;19;20196;-77
2023/04/15 07:24:30;;;;;;;15.23;6.77;;;15.90;99.90;;;;;;7288513;19;20187;-76
2023/04/15 07:26:57;;;;;;;15.50;6.97;;;15.70;99.90;;;;;;7297151;19;20193;-77
2023/04/15 07:29:23;;;;;;;16.50;6.93;;;15.80;99.90;;;;;;7297084;19;20199;-77
2023/04/15 07:31:49;;;;;;;15.97;6.90;;;16.40;99.90;;;;;;7318329;19;20190;-76
2023/04/15 07:34:15;;;;;;;14.70;6.23;;;17.40;99.90;;;;;;7296390;19;20190;-77
2023/04/15 07:36:41;;;;;;;15.40;6.20;;;18.70;99.90;;;;;;7296498;19;20186;-76
2023/04/15 07:39:07;;;;;;;11.77;6.07;;;19.40;99.90;;;;;;7296139;19;20196;-78
2023/04/15 07:41:33;;;;;;;15.70;6.63;;;20.30;99.90;;;;;;7296069;19;20185;-77
2023/04/15 07:43:59;;;;;;;12.47;5.17;;;21.60;99.90;;;;;;7294893;19;20223;-79
2023/04/15 07:46:26;;;;;;;13.63;5.67;;;20.80;99.90;;;;;;7296864;19;20638;-76
2023/04/15 07:48:52;;;;;;;11.10;5.13;;;21.00;99.90;;;;;;7297529;19;20211;-78
2023/04/15 07:51:21;;;;;;;11.70;5.50;;;21.50;99.90;;;;;;7319336;19;20189;-78
2023/04/15 07:53:49;;;;;;;11.83;5.27;;;21.80;99.90;;;;;;7295755;19;20195;-77
2023/04/15 07:56:15;;;;;;;11.63;5.50;;;21.70;99.90;;;;;;7296009;19;20736;-76
2023/04/15 07:58:41;;;;;;;11.10;5.40;;;21.60;99.90;;;;;;7294261;19;20183;-77
2023/04/15 08:01:07;;;;;;;11.37;5.60;;;21.80;99.90;;;;;;7297296;19;20195;-77
2023/04/15 08:03:33;;;;;;;13.10;5.90;;;21.70;99.90;;;;;;7296323;19;20290;-77
2023/04/15 08:05:59;;;;;;;12.63;5.67;;;21.40;99.90;;;;;;7292979;19;20254;-77
2023/04/15 08:08:25;;;;;;;11.80;5.53;;;21.10;99.90;;;;;;7295620;19;20192;-77
2023/04/15 08:10:51;;;;;;;12.93;6.40;;;20.80;99.90;;;;;;7307823;19;20188;-77
2023/04/15 08:13:17;;;;;;;13.43;5.80;;;20.70;99.90;;;;;;7313987;19;20202;-77
2023/04/15 08:15:43;;;;;;;13.10;5.80;;;20.90;99.90;;;;;;7293728;19;20732;-77
2023/04/15 08:18:08;;;;;;;15.27;6.93;;;21.00;99.90;;;;;;7293892;19;20192;-77
2023/04/15 08:20:34;;;;;;;14.20;7.10;;;20.10;99.90;;;;;;7294579;19;20200;-77
2023/04/15 08:23:00;;;;;;;15.77;7.40;;;19.80;99.90;;;;;;7296165;19;20262;-77
2023/04/15 08:25:26;;;;;;;13.47;7.20;;;20.00;99.90;;;;;;7292671;19;20182;-76
2023/04/15 08:27:55;;;;;;;12.70;7.00;;;20.10;99.90;;;;;;7295424;19;20188;-76
2023/04/15 08:30:20;;;;;;;14.10;7.50;;;19.00;99.90;;;;;;7310156;19;20195;-75
2023/04/15 08:32:46;;;;;;;15.47;7.37;;;18.30;99.90;;;;;;7307748;19;20181;-76
2023/04/15 08:35:12;;;;;;;16.80;8.03;;;18.00;99.90;;;;;;7290954;19;20280;-76
2023/04/15 08:37:38;;;;;;;15.37;7.93;;;17.80;99.90;;;;;;7286861;19;20200;-76
2023/04/15 08:40:04;;;;;;;15.97;7.53;;;17.60;99.90;;;;;;7286534;19;20531;-76
2023/04/15 08:42:33;;;;;;;16.20;8.27;;;17.60;99.90;;;;;;7289204;19;20332;-77
2023/04/15 08:45:02;;;;;;;12.00;7.33;;;17.90;99.90;;;;;;7286807;19;20191;-77
2023/04/15 08:47:33;;;;;;;14.77;7.93;;;18.20;99.90;;;;;;7287601;19;20198;-77
2023/04/15 08:50:01;;;;;;;15.67;7.37;;;18.40;99.90;;;;;;7287262;19;20212;-76
2023/04/15 08:52:27;;;;;;;14.90;7.33;;;18.70;99.90;;;;;;7286324;19;20173;-77
2023/04/15 08:54:59;;;;;;;14.93;7.17;;;18.40;99.90;;;;;;7288214;19;20616;-76
2023/04/15 08:57:26;;;;;;;15.47;7.97;;;17.80;99.90;;;;;;7286535;19;20189;-76
2023/04/15 08:59:56;;;;;;;15.60;7.60;;;17.70;99.90;;;;;;7287135;19;20189;-77
2023/04/15 09:02:24;;;;;;;14.73;8.10;;;18.00;99.90;;;;;;7287698;19;20184;-77
2023/04/15 09:04:50;;;;;;;14.87;8.23;;;17.90;99.90;;;;;;7309863;19;20196;-78
2023/04/15 09:07:16;;;;;;;18.60;9.03;;;17.80;99.90;;;;;;7287022;19;20655;-77
2023/04/15 09:09:42;;;;;;;16.27;8.33;;;17.40;99.90;;;;;;7287388;19;20191;-78
2023/04/15 09:12:09;;;;;;;15.67;8.50;;;17.50;99.90;;;;;;7286186;19;20197;-77
2023/04/15 09:14:35;;;;;;;16.97;9.10;;;17.60;99.90;;;;;;7288281;19;20186;-77
2023/04/15 09:17:03;;;;;;;15.73;8.63;;;17.60;99.90;;;;;;7287672;19;20196;-80
2023/04/15 09:19:30;;;;;;;15.87;9.07;;;17.50;99.90;;;;;;7286018;19;20316;-78
2023/04/15 09:21:57;;;;;;;19.60;9.87;;;17.50;99.90;;;;;;7288664;19;20260;-77
2023/04/15 09:24:24;;;;;;;16.63;9.43;;;17.50;99.90;;;;;;7286162;19;20185;-77
2023/04/15 09:26:55;;;;;;;18.63;9.30;;;17.90;99.90;;;;;;7307800;19;20186;-78
2023/04/15 09:29:23;;;;;;;19.20;9.33;;;18.50;99.90;;;;;;7281538;19;20200;-77
2023/04/15 09:31:49;;;;;;;16.00;9.50;;;19.00;99.90;;;;;;7307875;19;20287;-78
2023/04/15 09:34:15;;;;;;;17.90;9.73;;;19.50;99.90;;;;;;7287017;19;20617;-77
2023/04/15 09:36:47;;;;;;;14.77;8.53;;;20.00;99.90;;;;;;7286566;19;20195;-78
2023/04/15 09:39:13;;;;;;;18.33;9.67;;;20.40;99.90;;;;;;7285797;19;20766;-78
2023/04/15 09:41:39;;;;;;;17.73;8.67;;;20.80;99.90;;;;;;7286460;19;20196;-78
2023/04/15 09:44:05;;;;;;;16.27;9.07;;;21.30;99.90;;;;;;7287008;19;20188;-78
2023/04/15 09:46:42;;;;;;;13.50;8.37;;;21.80;99.90;;;;;;7282901;19;20239;-77
2023/04/15 09:49:09;;;;;;;14.97;8.07;;;21.20;99.90;;;;;;7286029;19;20702;-77
2023/04/15 09:51:35;;;;;;;15.17;9.37;;;21.30;99.90;;;;;;7284075;19;20198;-77
2023/04/15 09:54:01;;;;;;;15.90;8.17;;;21.40;99.90;;;;;;7284861;19;20193;-78
2023/04/15 09:56:37;;;;;;;17.77;8.17;;;21.60;99.90;;;;;;7286183;19;20212;-79
2023/04/15 09:59:07;;;;;;;14.03;7.73;;;22.30;99.90;;;;;;7285468;19;20209;-79
2023/04/15 10:01:33;;;;;;;14.30;6.10;;;22.80;99.90;;;;;;7286573;19;20191;-78
2023/04/15 10:04:03;;;;;;;12.77;5.03;;;22.40;97.20;;;;;;7287868;19;20200;-77
2023/04/15 10:06:29;;;;;;;8.70;4.33;;;21.80;92.70;;;;;;7288021;19;20296;-77
2023/04/15 10:08:57;;;;;;;12.00;5.23;;;21.00;91.40;;;;;;7285046;19;20650;-77
2023/04/15 10:11:23;;;;;;;13.43;5.77;;;20.90;91.60;;;;;;7286136;19;20680;-77
2023/04/15 10:13:50;;;;;;;9.17;5.30;;;21.00;92.00;;;;;;7306872;19;20576;-77
2023/04/15 10:16:19;;;;;;;9.90;4.60;;;20.70;92.20;;;;;;7285956;19;20192;-78
2023/04/15 10:18:50;;;;;;;11.87;5.80;;;20.20;92.60;;;;;;7284798;19;20202;-78
2023/04/15 10:21:17;;;;;;;12.37;6.00;;;20.40;93.50;;;;;;7285641;19;20258;-77
2023/04/15 10:23:44;;;;;;;10.50;6.07;;;20.60;93.60;;;;;;7285360;19;20267;-78
2023/04/15 10:26:13;;;;;;;9.93;5.60;;;20.80;93.80;;;;;;7283214;19;20237;-78
2023/04/15 10:28:43;;;;;;;12.23;5.80;;;21.40;93.00;;;;;;7284438;19;20535;-78
2023/04/15 10:31:12;;;;;;;8.90;4.43;;;21.70;92.80;;;;;;7285285;19;20193;-77
2023/04/15 10:33:38;;;;;;;9.57;4.50;;;21.30;88.90;;;;;;7284381;19;20193;-77
2023/04/15 10:36:05;;;;;;;11.23;4.97;;;20.80;90.70;;;;;;7284777;19;20532;-78
2023/04/15 10:38:37;;;;;;;10.10;5.00;;;20.80;90.80;;;;;;7283734;19;20686;-78
2023/04/15 10:41:23;;;;;;;10.90;4.90;;;21.30;89.90;;;;;;7285005;19;20193;-78
2023/04/15 10:44:00;;;;;;;10.47;4.63;;;21.90;89.20;;;;;;7285525;19;20214;-79
2023/04/15 10:46:38;;;;;;;9.63;5.50;;;22.40;91.00;;;;;;7182381;19;2005065;-79
2023/04/15 10:49:23;;;;;;;11.33;5.80;;;22.90;90.30;;;;;;7283026;19;20191;-79
2023/04/15 10:51:57;;;;;;;10.10;5.27;;;23.10;90.80;;;;;;7284317;19;20197;-79
2023/04/15 10:54:25;;;;;;;9.43;4.70;;;23.30;87.30;;;;;;7264594;19;20558;-79
2023/04/15 10:57:05;;;;;;;11.37;4.60;;;22.60;85.40;;;;;;7297561;19;20198;-78
2023/04/15 11:00:03;;;;;;;10.67;5.20;;;22.10;86.90;;;;;;7280149;19;20200;-79
2023/04/15 11:03:05;;;;;;;9.00;5.23;;;22.10;90.20;;;;;;7182605;19;2005149;-79
2023/04/15 11:05:52;;;;;;;11.43;5.50;;;22.20;85.70;;;;;;7180929;19;2004747;-76
2023/04/15 11:08:19;;;;;;;10.73;5.23;;;22.00;87.90;;;;;;7285844;19;20208;-78
2023/04/15 11:10:44;;;;;;;10.27;5.23;;;22.50;87.90;;;;;;7283657;19;20209;-77
2023/04/15 11:13:10;;;;;;;9.50;5.03;;;23.40;86.90;;;;;;7284126;19;20206;-77
2023/04/15 11:15:41;;;;;;;8.40;4.40;;;23.90;82.20;;;;;;7274642;19;20531;-77
2023/04/15 11:18:10;;;;;;;7.23;3.83;;;23.30;83.90;;;;;;7283461;19;20204;-77
2023/04/15 11:20:37;;;;;;;10.73;3.47;;;21.40;83.20;;;;;;7284694;19;20216;-77
2023/04/15 11:23:04;;;;;;;6.40;3.00;;;20.80;88.10;;;;;;7283596;19;20685;-77
2023/04/15 11:25:31;;;;;;;7.13;3.10;;;21.10;85.80;;;;;;7282444;19;20201;-78
2023/04/15 11:27:59;;;;;;;7.93;3.20;;;21.30;83.80;;;;;;7283853;19;20582;-77
2023/04/15 11:30:27;;;;;;;7.40;2.70;;;21.70;82.20;;;;;;7283118;19;20207;-77
2023/04/15 11:32:56;;;;;;;6.00;2.87;;;21.90;82.10;;;;;;7282391;19;20192;-78
2023/04/15 11:35:22;;;;;;;5.87;2.90;;;22.90;82.00;;;;;;7287837;19;20215;-77
2023/04/15 11:37:49;;;;;;;5.90;2.50;;;23.80;77.90;;;;;;7303909;19;20192;-77
2023/04/15 11:40:16;;;;;;;6.63;2.60;;;22.90;72.00;;;;;;7280247;19;20185;-78
2023/04/15 11:42:44;;;;;;;6.83;2.67;;;22.10;73.40;;;;;;7282374;19;20192;-77
2023/04/15 11:45:14;;;;;;;9.13;3.00;;;22.00;73.70;;;;;;7280943;19;20184;-77
2023/04/15 11:47:42;;;;;;;6.83;2.70;;;21.80;70.50;;;;;;7280998;19;20185;-78
2023/04/15 11:50:22;;;;;;;7.10;3.00;;;21.80;74.30;;;;;;7282992;19;20188;-77
2023/04/15 11:52:58;;;;;;;7.53;3.90;;;22.40;70.20;;;;;;7282268;19;20185;-76
2023/04/15 11:55:25;;;;;;;7.20;3.30;;;22.50;69.90;;;;;;7261562;19;20670;-76
2023/04/15 11:58:11;;;;;;;7.07;3.17;;;22.30;70.90;;;;;;7303983;19;20506;-76
2023/04/15 12:00:38;;;;;;;6.47;3.30;;;22.50;75.30;;;;;;7180096;19;2005070;-77
2023/04/15 12:03:21;;;;;;;5.77;3.30;;;22.20;73.00;;;;;;7281801;19;20177;-78
2023/04/15 12:06:01;;;;;;;5.83;3.13;;;22.40;72.00;;;;;;7282836;19;20322;-78
2023/04/15 12:08:47;;;;;;;6.87;3.50;;;22.30;69.70;;;;;;7178711;19;2004574;-78
2023/04/15 12:11:16;;;;;;;5.50;2.43;;;22.40;71.80;;;;;;7286997;19;20209;-78
2023/04/15 12:13:49;;;;;;;4.33;2.10;;;21.60;64.30;;;;;;7288755;19;20212;-78
2023/04/15 12:16:21;;;;;;;3.90;2.00;;;21.40;62.30;;;;;;7288741;19;20703;-78
2023/04/15 12:18:51;;;;;;;3.97;1.60;;;21.30;65.60;;;;;;7288957;19;20665;-77
2023/04/15 12:21:25;;;;;;;4.67;1.87;;;21.40;55.00;;;;;;7289609;19;20185;-78
2023/04/15 12:23:53;;;;;;;6.00;2.97;;;21.70;57.50;;;;;;7286123;19;20189;-78
2023/04/15 12:26:30;;;;;;;5.07;2.03;;;21.70;59.80;;;;;;7310885;19;20551;-78
2023/04/15 12:29:05;;;;;;;4.90;2.03;;;22.30;62.80;;;;;;7185166;19;2005067;-76
2023/04/15 12:31:32;;;;;;;3.57;2.20;;;21.10;59.80;;;;;;7287805;19;20263;-76
2023/04/15 12:33:59;;;;;;;5.73;2.53;;;20.80;59.00;;;;;;7288177;19;20189;-76
2023/04/15 12:36:26;;;;;;;7.07;2.90;;;20.20;63.90;;;;;;7288763;19;20193;-76
2023/04/15 12:38:51;;;;;;;8.07;3.10;;;19.70;69.20;;;;;;7306487;19;20289;-76
2023/04/15 12:41:18;;;;;;;6.50;2.50;;;19.20;71.30;;;;;;7298328;19;20695;-76